Latest Coastal Weather Observations for Double Island Point

IDQ60701

Issued at 5:41 pm EST Tuesday 28 February 2017 (issued every 10 minutes, with the page automatically refreshed every 10 minutes)

About coastal observations | Map of coastal stations | Coastal observations for QLD | Marine services | Other Formats
Station Details ID: 040068 Name: DOUBLE ISLAND POINT LIGHTHOUSE Lat: -25.93 Lon: 153.19 Height: 95.64 m
Data from the previous 72 hours. | See also: Recent months at Double Island Point
Date/Time
EST
Temp
°C
Wind Pressure Rain since
9am
mm
Weather Cloud Vis
km
Sea
Height
m
Swell
Dir  Spd
kts
Gust
kts
hPa Trend Height
m
Period
s
Dir
28/05:30pm 25.3 ESE 15 18 1014.0 - 0.0 - - - - - - -
28/05:00pm 25.3 E 15 17 1013.5 - 0.0 - - - - - - -
28/04:30pm 25.3 ESE 15 18 1013.5 - 0.0 - - - - - - -
28/04:00pm 25.6 ESE 15 19 1013.5 - 0.0 - - - - - - -
28/03:30pm 25.5 SE 16 18 1013.6 - 0.0 - - - - - - -
28/03:00pm 25.9 SE 17 21 1013.8 - 0.0 - - - - - - -
28/02:30pm 26.2 SE 17 19 1013.8 - 0.0 - - - - - - -
28/02:00pm 26.1 SE 17 20 1014.1 - 0.0 - - - - - - -
28/01:30pm 26.7 SSE 17 19 1014.2 - 0.0 - - - - - - -
28/01:00pm 25.5 SSE 19 23 1014.3 - 0.0 - - - - - - -
28/12:30pm 25.8 SSE 19 23 1014.5 - 0.0 - - - - - - -
28/12:00pm 25.5 SSE 17 21 1014.8 - 0.0 - - - - - - -
28/11:30am 25.7 SSE 18 22 1015.0 - 0.0 - - - - - - -
28/11:00am 24.8 S 19 24 1015.0 - 0.0 - - - - - - -
28/10:30am 24.4 S 19 25 1015.2 - 0.0 - - - - - - -
28/10:00am 24.3 SSE 21 27 1015.5 - 0.0 - - - - - - -
28/09:30am 23.9 SSE 21 26 1015.5 - 0.0 - - - - - - -
28/09:00am 23.6 S 21 26 1015.6 - 0.0 - - - - - - -
28/08:30am 23.3 S 20 26 1015.2 - 0.0 - - - - - - -
28/08:00am 22.9 S 23 28 1014.9 - 0.0 - - - - - - -
28/07:30am 22.5 S 23 30 1014.6 - 0.0 - - - - - - -
28/07:00am 22.5 S 24 30 1014.4 - 0.0 - - - - - - -
28/06:30am 21.9 S 24 31 1014.0 - 0.0 - - - - - - -
28/06:00am 21.7 S 24 30 1013.7 - 0.0 - - - - - - -
28/05:30am 21.8 S 21 27 1013.4 - 0.0 - - - - - - -
28/05:00am 21.8 S 20 26 1013.3 - 0.0 - - - - - - -
28/04:30am 21.5 S 19 26 1013.4 - 0.0 - - - - - - -
28/04:00am 21.8 S 22 29 1013.4 - 0.0 - - - - - - -
28/03:30am 21.8 S 18 25 1013.5 - 0.0 - - - - - - -
28/03:00am 22.0 S 19 24 1013.7 - 0.0 - - - - - - -
28/02:30am 21.8 S 20 25 1013.7 - 0.0 - - - - - - -
28/02:00am 22.1 S 17 24 1014.0 - 0.0 - - - - - - -
28/01:30am 23.3 SSE 17 21 1014.1 - 0.0 - - - - - - -
28/01:00am 22.9 S 18 23 1014.4 - 0.0 - - - - - - -
28/12:30am 23.5 SSE 17 21 1015.0 - 0.0 - - - - - - -
28/12:00am 24.1 SE 20 23 1015.2 - 0.0 - - - - - - -
 
Date/Time
EST
Temp
°C
Wind Pressure Rain since
9am
mm
Weather Cloud Vis
km
Sea
Height
m
Swell
Dir  Spd
kts
Gust
kts
hPa Trend Height
m
Period
s
Dir
27/11:30pm 24.0 SE 19 22 1015.4 - 0.0 - - - - - - -
27/11:00pm 23.5 SSE 19 22 1015.5 - 0.0 - - - - - - -
27/10:30pm 23.7 SSE 20 23 1015.7 - 0.0 - - - - - - -
27/10:00pm 23.6 SE 20 24 1015.6 - 0.0 - - - - - - -
27/09:30pm 23.6 SE 23 26 1015.6 - 0.0 - - - - - - -
27/09:00pm 23.7 SE 21 25 1015.8 - 0.0 - - - - - - -
27/08:30pm 24.1 SSE 25 30 1015.5 - 0.0 - - - - - - -
27/08:00pm 23.8 SSE 26 30 1015.4 - 0.0 - - - - - - -
27/07:30pm 23.6 SSE 25 28 1015.1 - 0.0 - - - - - - -
27/07:00pm 23.9 SSE 26 30 1015.0 - 0.0 - - - - - - -
27/06:30pm 23.4 SSE 26 30 1014.6 - 0.0 - - - - - - -
27/06:00pm 23.9 SE 25 30 1014.6 - 0.0 - - - - - - -
27/05:30pm 24.0 SE 22 27 1014.6 - 0.0 - - - - - - -
27/05:00pm 24.0 SSE 27 31 1014.4 - 0.0 - - - - - - -
27/04:30pm 24.3 SSE 25 28 1014.3 - 0.0 - - - - - - -
27/04:00pm 24.5 SE 19 23 1014.7 - 0.0 - - - - - - -
27/03:50pm 24.4 SE 22 28 1014.5 - 0.0 - - - - - - -
27/03:30pm 24.6 SE 23 27 1013.8 - 0.0 - - - - - - -
27/03:00pm 25.3 SE 19 21 1014.1 - 0.0 - - - - - - -
27/02:30pm 25.9 SE 18 21 1014.5 - 0.0 - - - - - - -
27/02:00pm 25.8 SE 19 22 1014.5 - 0.0 - - - - - - -
27/01:30pm 25.9 SSE 18 21 1014.6 - 0.0 - - - - - - -
27/01:00pm 26.1 SSE 14 19 1015.0 - 0.0 - - - - - - -
27/12:30pm 25.2 SSE 15 19 1015.6 - 0.0 - - - - - - -
27/12:00pm 24.8 SSE 15 18 1015.8 - 0.0 - - - - - - -
27/11:30am 24.6 SSE 17 24 1016.0 - 0.0 - - - - - - -
27/11:00am 24.5 SSE 19 24 1016.3 - 0.0 - - - - - - -
27/10:30am 23.9 SSE 17 22 1016.2 - 0.0 - - - - - - -
27/10:00am 24.8 SE 14 18 1016.1 - 0.0 - - - - - - -
27/09:30am 23.0 SSE 11 15 1016.2 - 0.0 - - - - - - -
27/09:00am 22.8 S 13 18 1016.4 - 5.4 - - - - - - -
27/08:30am 22.0 S 14 17 1016.1 - 5.4 - - - - - - -
27/08:00am 21.4 S 14 17 1015.7 - 5.4 - - - - - - -
27/07:30am 20.7 S 17 20 1015.1 - 5.4 - - - - - - -
27/07:00am 20.9 S 16 19 1015.0 - 5.4 - - - - - - -
27/06:30am 20.6 SSE 19 25 1015.0 - 5.4 - - - - - - -
27/06:14am 21.3 SE 20 24 1014.7 - 5.2 - - - - - - -
27/06:00am 21.8 ESE 16 20 1014.7 - 5.2 - - - - - - -
27/05:42am 21.9 SSE 15 21 1014.2 - 5.2 - - - - - - -
27/05:30am 21.9 ESE 21 28 1014.2 - 5.2 - - - - - - -
27/05:22am 22.3 SE 21 27 1014.2 - 5.2 - - - - - - -
27/05:00am 21.7 S 19 23 1013.9 - 5.2 - - - - - - -
27/04:30am 21.6 SSE 18 21 1013.7 - 5.2 - - - - - - -
27/04:00am 21.0 S 16 22 1013.8 - 5.0 - - - - - - -
27/03:30am 21.6 SSE 17 23 1013.8 - 4.8 - - - - - - -
27/03:00am 22.5 SE 13 16 1013.9 - 4.8 Recent precip. - - - - - -
27/02:30am 21.1 SE 20 22 1013.9 - 4.8 - - - - - - -
27/02:10am 22.6 SE 15 25 1014.4 - 4.6 - - - - - - -
27/02:00am 22.4 S 13 16 1014.5 - 4.6 - - - - - - -
27/01:30am 22.4 SSE 16 20 1014.2 - 4.6 - - - - - - -
27/01:00am 22.3 SSE 18 22 1014.3 - 4.6 - - - - - - -
27/12:30am 21.4 SSE 24 31 1014.5 - 4.6 - - - - - - -
27/12:16am 22.3 SE 23 34 1014.5 - 4.6 - - - - - - -
27/12:13am 23.5 SE 19 31 1014.8 - 4.6 - - - - - - -
27/12:00am 23.0 SE 17 23 1015.0 - 4.6 - - - - - - -
 
Date/Time
EST
Temp
°C
Wind Pressure Rain since
9am
mm
Weather Cloud Vis
km
Sea
Height
m
Swell
Dir  Spd
kts
Gust
kts
hPa Trend Height
m
Period
s
Dir
26/11:30pm 23.3 SE 16 19 1014.9 - 4.6 - - - - - - -
26/11:00pm 21.8 SE 18 26 1015.2 - 4.6 - - - - - - -
26/10:30pm 21.9 SSE 11 18 1016.0 - 4.2 - - - - - - -
26/10:09pm 23.2 E 18 29 1015.4 - 0.2 - - - - - - -
26/10:00pm 23.7 E 17 20 1015.5 - 0.2 - - - - - - -
26/09:30pm 23.8 ESE 17 20 1015.7 - 0.2 - - - - - - -
26/09:00pm 23.6 ESE 22 27 1015.8 - 0.2 - - - - - - -
26/08:30pm 24.1 ESE 19 23 1015.7 - 0.2 - - - - - - -
26/08:00pm 24.3 SE 24 27 1014.9 - 0.2 - - - - - - -
26/07:30pm 24.3 SE 25 30 1014.8 - 0.2 - - - - - - -
26/07:00pm 24.2 SE 21 24 1014.2 - 0.2 - - - - - - -
26/06:30pm 24.2 SE 21 26 1014.1 - 0.2 - - - - - - -
26/06:00pm 24.0 SSE 21 25 1014.0 - 0.2 - - - - - - -
26/05:30pm 24.2 SE 19 23 1013.2 - 0.2 - - - - - - -
26/05:00pm 24.5 SE 21 23 1013.7 - 0.2 - - - - - - -
26/04:30pm 25.2 SE 20 23 1013.5 - 0.2 - - - - - - -
26/04:00pm 25.4 SE 23 26 1013.3 - 0.2 - - - - - - -
26/03:30pm 26.0 ESE 17 22 1013.2 - 0.2 - - - - - - -
26/03:00pm 26.9 SE 16 19 1013.3 - 0.2 - - - - - - -
26/02:30pm 26.9 SE 17 20 1013.3 - 0.2 - - - - - - -
26/02:00pm 27.3 SSE 14 15 1013.8 - 0.2 - - - - - - -
26/01:30pm 26.4 SSE 10 12 1014.1 - 0.2 - - - - - - -
26/01:22pm 26.6 SE 8 11 1014.1 - 0.2 - - - - - - -
26/01:00pm 24.6 E 22 27 1014.3 - 0.0 - - - - - - -
26/12:52pm 25.7 SE 18 25 1014.2 - 0.0 - - - - - - -
26/12:30pm 28.6 SE 13 16 1014.4 - 0.0 - - - - - - -
26/12:00pm 27.9 SE 13 16 1014.4 - 0.0 - - - - - - -
26/11:30am 28.0 SE 13 16 1014.7 - 0.0 - - - - - - -
26/11:00am 28.0 ESE 11 13 1014.8 - 0.0 - - - - - - -
26/10:30am 27.5 ESE 13 15 1014.9 - 0.0 - - - - - - -
26/10:00am 26.6 ESE 16 19 1014.7 - 0.0 - - - - - - -
26/09:30am 26.6 ESE 12 16 1014.8 - 0.0 - - - - - - -
26/09:00am 26.9 ESE 14 17 1014.6 - 0.6 - - - - - - -
26/08:30am 25.2 SE 13 15 1014.6 - 0.6 - - - - - - -
26/08:00am 25.9 ESE 12 15 1014.2 - 0.6 - - - - - - -
26/07:30am 25.3 ESE 10 13 1013.9 - 0.6 - - - - - - -
26/07:00am 23.9 SE 10 18 1013.8 - 0.6 - - - - - - -
26/06:30am 24.3 SE 15 18 1013.3 - 0.0 - - - - - - -
26/06:00am 24.0 ESE 14 17 1013.2 - 0.0 - - - - - - -
26/05:30am 24.0 ESE 15 19 1012.7 - 0.0 - - - - - - -
26/05:00am 24.4 SE 18 21 1012.6 - 0.0 - - - - - - -
26/04:30am 24.4 SE 18 21 1012.4 - 0.0 - - - - - - -
26/04:00am 24.4 SE 18 23 1012.2 - 0.0 - - - - - - -
26/03:30am 24.6 SE 20 23 1012.1 - 0.0 - - - - - - -
26/03:00am 24.4 SE 21 23 1012.1 - 0.0 - - - - - - -
26/02:30am 24.5 SE 20 23 1012.0 - 0.0 - - - - - - -
26/02:00am 24.4 SE 21 25 1012.1 - 0.0 - - - - - - -
26/01:30am 24.6 SE 23 26 1012.3 - 0.0 - - - - - - -
26/01:00am 24.6 SE 24 28 1012.6 - 0.0 - - - - - - -
26/12:30am 24.5 SE 24 28 1012.9 - 0.0 - - - - - - -
26/12:00am 24.6 SE 26 29 1013.1 - 0.0 - - - - - - -
 
Date/Time
EST
Temp
°C
Wind Pressure Rain since
9am
mm
Weather Cloud Vis
km
Sea
Height
m
Swell
Dir  Spd
kts
Gust
kts
hPa Trend Height
m
Period
s
Dir
25/11:30pm 24.6 SE 25 27 1013.7 - 0.0 - - - - - - -
25/11:00pm 24.8 SE 25 28 1014.1 - 0.0 - - - - - - -
25/10:30pm 24.8 SE 25 28 1014.3 - 0.0 - - - - - - -
25/10:00pm 24.6 SE 23 27 1014.2 - 0.0 - - - - - - -
25/09:30pm 24.7 SE 25 28 1014.2 - 0.0 - - - - - - -
25/09:00pm 24.4 SE 23 25 1014.3 - 0.0 - - - - - - -
25/08:30pm 24.8 SSE 19 22 1014.2 - 0.0 - - - - - - -
25/08:00pm 24.9 SE 19 22 1014.0 - 0.0 - - - - - - -
25/07:30pm 24.6 SE 20 23 1013.7 - 0.0 - - - - - - -
25/07:00pm 24.5 SE 18 22 1013.5 - 0.0 - - - - - - -
25/06:30pm 24.5 SE 21 23 1013.2 - 0.0 - - - - - - -
25/06:00pm 25.0 SE 20 23 1012.9 - 0.0 - - - - - - -

Other Formats:

Comma delimited format used in spreadsheet applications
http://www.bom.gov.au/fwo/IDQ60701/IDQ60701.94584.axf

JavaScript Object Notation format (JSON) in row-major order
http://www.bom.gov.au/fwo/IDQ60701/IDQ60701.94584.json